createdAt,value
2017-07-18T00:00:55.333Z,99.99
2017-07-18T00:01:55.290Z,99.99
2017-07-18T00:02:55.308Z,99.99
2017-07-18T00:03:55.357Z,99.99
2017-07-18T00:04:55.320Z,99.99
2017-07-18T00:05:55.406Z,99.99
2017-07-18T00:06:55.404Z,99.99
2017-07-18T00:07:55.353Z,99.99
2017-07-18T00:08:55.345Z,99.99
2017-07-18T00:09:55.313Z,99.99
2017-07-18T00:10:55.421Z,99.99
2017-07-18T00:11:55.324Z,99.99
2017-07-18T00:12:55.385Z,99.99
2017-07-18T00:13:55.419Z,99.99
2017-07-18T00:14:55.340Z,99.99
2017-07-18T00:15:55.293Z,99.99
2017-07-18T00:16:55.342Z,99.99
2017-07-18T00:17:55.316Z,99.99
2017-07-18T00:18:55.341Z,99.99
2017-07-18T00:19:55.342Z,99.99
2017-07-18T00:20:55.343Z,99.99
2017-07-18T00:21:55.346Z,99.99
2017-07-18T00:22:55.349Z,99.99
2017-07-18T00:23:55.351Z,99.99
2017-07-18T00:24:55.358Z,99.99
2017-07-18T00:25:55.379Z,99.99
2017-07-18T00:26:55.403Z,99.99
2017-07-18T00:27:55.396Z,99.99
2017-07-18T00:28:55.399Z,99.99
2017-07-18T00:29:55.333Z,99.99
2017-07-18T00:30:55.325Z,99.99
2017-07-18T00:31:55.360Z,99.99
2017-07-18T00:32:55.366Z,99.99
2017-07-18T00:33:55.444Z,99.99
2017-07-18T00:34:55.394Z,99.99
2017-07-18T00:35:55.420Z,99.99
2017-07-18T00:36:55.335Z,99.99
2017-07-18T00:37:55.360Z,99.99
2017-07-18T00:38:55.374Z,99.99
2017-07-18T00:39:55.430Z,99.99
2017-07-18T00:40:55.373Z,99.99
2017-07-18T00:41:55.366Z,99.99
2017-07-18T00:42:55.427Z,99.99
2017-07-18T00:43:55.367Z,99.99
2017-07-18T00:44:55.393Z,99.99
2017-07-18T00:45:55.434Z,99.99
2017-07-18T00:46:55.345Z,99.99
2017-07-18T00:47:55.342Z,99.99
2017-07-18T00:48:55.347Z,99.99
2017-07-18T00:49:55.439Z,99.99
2017-07-18T00:50:55.339Z,99.99
2017-07-18T00:51:55.370Z,99.99
2017-07-18T00:52:55.379Z,99.99
2017-07-18T00:53:55.433Z,99.99
2017-07-18T00:54:55.409Z,99.99
2017-07-18T00:55:55.379Z,99.99
2017-07-18T00:56:55.436Z,99.99
2017-07-18T00:57:55.475Z,99.99
2017-07-18T00:58:55.351Z,99.99
2017-07-18T00:59:55.402Z,99.99
2017-07-18T01:00:55.384Z,99.99
2017-07-18T01:01:55.400Z,99.99
2017-07-18T01:02:55.413Z,99.99
2017-07-18T01:03:55.386Z,99.99
2017-07-18T01:04:55.401Z,99.99
2017-07-18T01:05:55.426Z,99.99
2017-07-18T01:06:55.343Z,99.99
2017-07-18T01:07:55.374Z,99.99
2017-07-18T01:08:55.406Z,99.99
2017-07-18T01:09:55.405Z,99.99
2017-07-18T01:10:55.413Z,99.99
2017-07-18T01:11:55.346Z,99.99
2017-07-18T01:12:55.410Z,99.99
2017-07-18T01:13:55.411Z,99.99
2017-07-18T01:14:55.410Z,99.99
2017-07-18T01:15:55.349Z,99.99
2017-07-18T01:16:55.362Z,99.99
2017-07-18T01:17:55.381Z,99.99
2017-07-18T01:18:55.350Z,99.99
2017-07-18T01:19:55.349Z,99.99
2017-07-18T01:20:55.414Z,99.99
2017-07-18T01:21:55.354Z,99.99
2017-07-18T01:22:55.416Z,99.99
2017-07-18T01:23:55.378Z,99.99
2017-07-18T01:24:55.392Z,99.99
2017-07-18T01:25:55.394Z,99.99
2017-07-18T01:26:55.372Z,99.99
2017-07-18T01:27:55.397Z,99.99
2017-07-18T01:28:55.396Z,99.99
2017-07-18T01:29:55.385Z,99.99
2017-07-18T01:30:55.393Z,99.99
2017-07-18T01:31:55.451Z,99.99
2017-07-18T01:32:55.389Z,99.99
2017-07-18T01:33:55.425Z,99.99
2017-07-18T01:34:55.420Z,99.99
2017-07-18T01:35:55.422Z,99.99
2017-07-18T01:36:55.427Z,99.99
2017-07-18T01:37:55.388Z,99.99
2017-07-18T01:38:55.389Z,99.99
2017-07-18T01:39:55.423Z,99.99
2017-07-18T01:40:55.365Z,99.99
2017-07-18T01:41:55.361Z,99.99
2017-07-18T01:42:55.395Z,99.99
2017-07-18T01:43:55.392Z,99.99
2017-07-18T01:44:55.441Z,99.99
2017-07-18T01:45:55.439Z,99.99
2017-07-18T01:46:55.445Z,99.99
2017-07-18T01:47:55.414Z,99.99
2017-07-18T01:48:55.407Z,99.99
2017-07-18T01:49:55.430Z,99.99
2017-07-18T01:50:55.445Z,99.99
2017-07-18T01:51:55.451Z,99.99
2017-07-18T01:52:55.414Z,99.99
2017-07-18T01:53:55.467Z,99.99
2017-07-18T01:54:55.386Z,99.99
2017-07-18T01:55:55.438Z,99.99
2017-07-18T01:56:55.414Z,99.99
2017-07-18T01:57:55.381Z,99.99
2017-07-18T01:58:55.385Z,99.99
2017-07-18T01:59:55.506Z,99.99
2017-07-18T02:00:55.416Z,99.99
2017-07-18T02:01:55.455Z,99.99
2017-07-18T02:02:55.382Z,99.99
2017-07-18T02:03:55.442Z,99.99
2017-07-18T02:04:55.409Z,99.99
2017-07-18T02:05:55.437Z,99.99
2017-07-18T02:06:55.477Z,99.99
2017-07-18T02:07:55.427Z,99.99
2017-07-18T02:08:55.419Z,99.99
2017-07-18T02:09:55.416Z,99.99
2017-07-18T02:10:55.460Z,99.99
2017-07-18T02:11:55.481Z,99.99
2017-07-18T02:12:55.423Z,99.99
2017-07-18T02:13:55.492Z,99.99
2017-07-18T02:14:55.441Z,99.99
2017-07-18T02:15:55.444Z,99.99
2017-07-18T02:16:55.439Z,99.99
2017-07-18T02:17:55.413Z,99.99
2017-07-18T02:18:55.423Z,99.99
2017-07-18T02:19:55.415Z,99.99
2017-07-18T02:20:55.410Z,99.99
2017-07-18T02:21:55.419Z,99.99
2017-07-18T02:22:55.388Z,99.99
2017-07-18T02:23:55.448Z,99.99
2017-07-18T02:24:55.450Z,99.99
2017-07-18T02:25:55.392Z,99.99
2017-07-18T02:26:55.402Z,99.99
2017-07-18T02:27:55.449Z,99.99
2017-07-18T02:28:55.425Z,99.99
2017-07-18T02:29:55.452Z,99.99
2017-07-18T02:30:55.423Z,99.99
2017-07-18T02:31:55.393Z,99.99
2017-07-18T02:32:55.394Z,99.99
2017-07-18T02:33:55.392Z,99.99
2017-07-18T02:34:55.400Z,99.99
2017-07-18T02:35:55.345Z,99.99
2017-07-18T02:36:55.401Z,99.99
2017-07-18T02:37:55.399Z,99.99
2017-07-18T02:38:55.455Z,99.99
2017-07-18T02:39:55.386Z,99.99
2017-07-18T02:40:55.341Z,99.99
2017-07-18T02:41:55.385Z,99.99
2017-07-18T02:42:55.389Z,99.99
2017-07-18T02:43:55.423Z,99.99
2017-07-18T02:44:55.401Z,99.99
2017-07-18T02:45:55.401Z,99.99
2017-07-18T02:46:55.463Z,99.99
2017-07-18T02:47:55.400Z,99.99
2017-07-18T02:48:55.488Z,99.99
2017-07-18T02:49:55.404Z,99.99
2017-07-18T02:50:55.431Z,99.99
2017-07-18T02:51:55.466Z,99.99
2017-07-18T02:52:55.432Z,99.99
2017-07-18T02:53:55.430Z,99.99
2017-07-18T02:54:55.385Z,99.99
2017-07-18T02:55:55.434Z,99.99
2017-07-18T02:56:55.427Z,99.99
2017-07-18T02:57:55.479Z,99.99
2017-07-18T02:58:55.378Z,99.99
2017-07-18T02:59:55.382Z,99.99
2017-07-18T03:00:55.440Z,99.99
2017-07-18T03:01:55.392Z,99.99
2017-07-18T03:02:55.415Z,99.99
2017-07-18T03:03:55.389Z,99.99
2017-07-18T03:04:55.418Z,99.99
2017-07-18T03:05:55.436Z,99.99
2017-07-18T03:06:55.447Z,99.99
2017-07-18T03:07:55.411Z,99.99
2017-07-18T03:08:55.441Z,99.99
2017-07-18T03:09:55.413Z,99.99
2017-07-18T03:10:55.477Z,99.99
2017-07-18T03:11:55.415Z,99.99
2017-07-18T03:12:55.478Z,99.99
2017-07-18T03:13:55.472Z,99.99
2017-07-18T03:14:55.502Z,99.99
2017-07-18T03:15:55.415Z,99.99
2017-07-18T03:16:55.420Z,99.99
2017-07-18T03:17:55.420Z,99.99
2017-07-18T03:18:55.475Z,99.99
2017-07-18T03:19:55.445Z,99.99
2017-07-18T03:20:55.420Z,99.99
2017-07-18T03:21:55.417Z,99.99
2017-07-18T03:22:55.423Z,99.99
2017-07-18T03:23:55.448Z,99.99
2017-07-18T03:24:55.506Z,99.99
2017-07-18T03:25:55.495Z,99.99
2017-07-18T03:26:55.465Z,99.99
2017-07-18T03:27:55.530Z,99.99
2017-07-18T03:28:55.524Z,99.99
2017-07-18T03:29:55.531Z,99.99
2017-07-18T03:30:55.490Z,99.99
2017-07-18T03:31:55.534Z,99.99
2017-07-18T03:32:55.473Z,99.99
2017-07-18T03:33:55.533Z,99.99
2017-07-18T03:34:55.490Z,99.99
2017-07-18T03:35:55.430Z,99.99
2017-07-18T03:36:55.433Z,99.99
2017-07-18T03:37:55.494Z,99.99
2017-07-18T03:38:55.432Z,99.99
2017-07-18T03:39:55.456Z,99.99
2017-07-18T03:40:55.501Z,99.99
2017-07-18T03:41:55.500Z,99.99
2017-07-18T03:42:55.492Z,99.99
2017-07-18T03:43:55.437Z,99.99
2017-07-18T03:44:55.513Z,99.99
2017-07-18T03:45:55.437Z,99.99
2017-07-18T03:46:55.533Z,99.99
2017-07-18T03:47:55.445Z,99.99
2017-07-18T03:48:55.504Z,99.99
2017-07-18T03:49:55.515Z,99.99
2017-07-18T03:50:55.471Z,99.99
2017-07-18T03:51:55.443Z,99.99
2017-07-18T03:52:55.540Z,99.99
2017-07-18T03:53:55.484Z,99.99
2017-07-18T03:54:55.454Z,99.99
2017-07-18T03:55:55.376Z,99.99
2017-07-18T03:56:55.383Z,99.99
2017-07-18T03:57:55.380Z,99.99
2017-07-18T03:58:55.462Z,99.99
2017-07-18T03:59:55.445Z,99.99
2017-07-18T04:00:55.460Z,99.99
2017-07-18T04:01:55.458Z,99.99
2017-07-18T04:02:55.445Z,99.99
2017-07-18T04:03:55.447Z,99.99
2017-07-18T04:04:55.444Z,99.99
2017-07-18T04:05:55.534Z,99.99
2017-07-18T04:06:55.520Z,99.99
2017-07-18T04:07:55.506Z,99.99
2017-07-18T04:08:55.479Z,99.99
2017-07-18T04:09:55.515Z,99.99
2017-07-18T04:10:55.516Z,99.99
2017-07-18T04:11:55.542Z,99.99
2017-07-18T04:12:55.540Z,99.99
2017-07-18T04:13:55.453Z,99.99
2017-07-18T04:14:55.453Z,99.99
2017-07-18T04:15:55.450Z,99.99
2017-07-18T04:16:55.518Z,99.99
2017-07-18T04:17:55.602Z,99.99
2017-07-18T04:18:55.485Z,99.99
2017-07-18T04:19:55.522Z,99.99
2017-07-18T04:20:55.487Z,99.99
2017-07-18T04:21:55.481Z,99.99
2017-07-18T04:22:55.481Z,99.99
2017-07-18T04:23:55.469Z,99.99
2017-07-18T04:24:55.475Z,99.99
2017-07-18T04:25:55.479Z,99.99
2017-07-18T04:26:55.412Z,99.99
2017-07-18T04:27:55.411Z,99.99
2017-07-18T04:28:55.414Z,99.99
2017-07-18T04:29:55.459Z,99.99
2017-07-18T04:30:55.479Z,99.99
2017-07-18T04:31:55.437Z,99.99
2017-07-18T04:32:55.463Z,99.99
2017-07-18T04:33:55.434Z,99.99
2017-07-18T04:34:55.497Z,99.99
2017-07-18T04:35:55.456Z,99.99
2017-07-18T04:36:55.487Z,99.99
2017-07-18T04:37:55.492Z,99.99
2017-07-18T04:38:55.460Z,99.99
2017-07-18T04:39:55.488Z,99.99
2017-07-18T04:40:55.522Z,99.99
2017-07-18T04:41:55.530Z,99.99
2017-07-18T04:42:55.465Z,99.99
2017-07-18T04:43:55.526Z,99.99
2017-07-18T04:44:55.463Z,99.99
2017-07-18T04:45:55.479Z,99.99
2017-07-18T04:46:55.540Z,99.99
2017-07-18T04:47:55.536Z,99.99
2017-07-18T04:48:55.536Z,99.99
2017-07-18T04:49:55.475Z,99.99
2017-07-18T04:50:55.483Z,99.99
2017-07-18T04:51:55.542Z,99.99
2017-07-18T04:52:55.602Z,99.99
2017-07-18T04:53:55.480Z,99.99
2017-07-18T04:54:55.572Z,99.99
2017-07-18T04:55:55.507Z,99.99
2017-07-18T04:56:55.480Z,99.99
2017-07-18T04:57:55.541Z,99.99
2017-07-18T04:58:55.508Z,99.99
2017-07-18T04:59:55.519Z,99.99
2017-07-18T05:00:55.519Z,99.99
2017-07-18T05:01:55.569Z,99.99
2017-07-18T05:02:55.555Z,99.99
2017-07-18T05:03:55.548Z,99.99
2017-07-18T05:04:55.566Z,99.99
2017-07-18T05:05:55.569Z,99.99
2017-07-18T05:06:55.491Z,99.99
2017-07-18T05:07:55.557Z,99.99
2017-07-18T05:08:55.505Z,99.99
2017-07-18T05:09:55.481Z,99.99
2017-07-18T05:10:55.591Z,99.99
2017-07-18T05:11:55.581Z,99.99
2017-07-18T05:12:55.490Z,99.99
2017-07-18T05:13:55.574Z,99.99
2017-07-18T05:14:55.488Z,99.99
2017-07-18T05:15:55.542Z,99.99
2017-07-18T05:16:55.495Z,99.99
2017-07-18T05:17:55.497Z,99.99
2017-07-18T05:18:55.495Z,99.99
2017-07-18T05:19:55.581Z,99.99
2017-07-18T05:20:55.531Z,99.99
2017-07-18T05:21:55.581Z,99.99
2017-07-18T05:22:55.590Z,99.99
2017-07-18T05:23:55.568Z,99.99
2017-07-18T05:24:55.589Z,99.99
2017-07-18T05:25:55.484Z,99.99
2017-07-18T05:26:55.655Z,99.99
2017-07-18T05:27:55.517Z,99.99
2017-07-18T05:28:55.518Z,99.99
2017-07-18T05:29:55.556Z,99.99
2017-07-18T05:30:55.486Z,99.99
2017-07-18T05:31:55.515Z,99.99
2017-07-18T05:32:55.555Z,99.99
2017-07-18T05:33:55.519Z,99.99
2017-07-18T05:34:55.488Z,99.99
2017-07-18T05:35:55.565Z,99.99
2017-07-18T05:36:55.536Z,99.99
2017-07-18T05:37:55.534Z,99.99
2017-07-18T05:38:55.548Z,99.99
2017-07-18T05:39:55.540Z,99.99
2017-07-18T05:40:55.555Z,99.99
2017-07-18T05:41:55.604Z,99.99
2017-07-18T05:42:55.508Z,99.99
2017-07-18T05:43:55.540Z,99.99
2017-07-18T05:44:55.513Z,99.99
2017-07-18T05:45:55.524Z,99.99
2017-07-18T05:46:55.542Z,99.99
2017-07-18T05:47:55.541Z,99.99
2017-07-18T05:48:55.563Z,99.99
2017-07-18T05:49:55.599Z,99.99
2017-07-18T05:50:55.602Z,99.99
2017-07-18T05:51:55.512Z,99.99
2017-07-18T05:52:55.544Z,99.99
2017-07-18T05:53:55.511Z,99.99
2017-07-18T05:54:55.566Z,99.99
2017-07-18T05:55:55.520Z,99.99
2017-07-18T05:56:55.574Z,99.99
2017-07-18T05:57:55.546Z,99.99
2017-07-18T05:58:55.548Z,99.99
2017-07-18T05:59:55.536Z,99.99
2017-07-18T06:00:55.603Z,99.99
2017-07-18T06:01:55.522Z,99.99
2017-07-18T06:02:55.541Z,99.99
2017-07-18T06:03:55.543Z,99.99
2017-07-18T06:04:55.591Z,99.99
2017-07-18T06:05:55.524Z,99.99
2017-07-18T06:06:55.480Z,99.99
2017-07-18T06:07:55.514Z,96.74
2017-07-18T06:08:55.498Z,95.56
2017-07-18T06:09:55.418Z,95.26
2017-07-18T06:10:55.501Z,94.67
2017-07-18T06:11:55.508Z,94.99
2017-07-18T06:12:55.514Z,94.50
2017-07-18T06:13:55.509Z,94.34
2017-07-18T06:14:55.421Z,94.42
2017-07-18T06:15:55.591Z,90.85
2017-07-18T06:16:55.594Z,91.57
2017-07-18T06:17:55.533Z,92.14
2017-07-18T06:18:55.594Z,90.93
2017-07-18T06:19:55.711Z,88.33
2017-07-18T06:20:55.560Z,89.14
2017-07-18T06:21:55.561Z,88.73
2017-07-18T06:22:55.619Z,87.67
2017-07-18T06:23:55.616Z,88.79
2017-07-18T06:24:55.535Z,86.79
2017-07-18T06:25:55.561Z,87.74
2017-07-18T06:26:55.528Z,87.56
2017-07-18T06:27:55.615Z,87.96
2017-07-18T06:28:55.547Z,88.46
2017-07-18T06:29:55.584Z,87.51
2017-07-18T06:30:55.532Z,86.94
2017-07-18T06:31:55.622Z,87.93
2017-07-18T06:32:55.570Z,87.13
2017-07-18T06:33:55.568Z,88.09
2017-07-18T06:34:55.535Z,87.64
2017-07-18T06:35:55.551Z,87.05
2017-07-18T06:36:55.557Z,86.65
2017-07-18T06:37:55.502Z,86.07
2017-07-18T06:38:55.599Z,86.17
2017-07-18T06:39:55.557Z,84.97
2017-07-18T06:40:55.563Z,85.93
2017-07-18T06:41:55.602Z,84.36
2017-07-18T06:42:55.509Z,85.75
2017-07-18T06:43:55.557Z,84.26
2017-07-18T06:44:55.516Z,83.86
2017-07-18T06:45:55.598Z,85.48
2017-07-18T06:46:55.537Z,83.99
2017-07-18T06:47:55.597Z,85.69
2017-07-18T06:48:55.568Z,83.94
2017-07-18T06:49:55.530Z,84.05
2017-07-18T06:50:55.568Z,82.16
2017-07-18T06:51:55.600Z,83.20
2017-07-18T06:52:55.566Z,81.18
2017-07-18T06:53:55.546Z,83.83
2017-07-18T06:54:55.569Z,80.52
2017-07-18T06:55:55.546Z,78.81
2017-07-18T06:56:55.569Z,77.94
2017-07-18T06:57:55.560Z,77.97
2017-07-18T06:58:55.578Z,78.28
2017-07-18T06:59:55.545Z,79.33
2017-07-18T07:00:55.612Z,76.97
2017-07-18T07:01:55.583Z,77.49
2017-07-18T07:02:55.620Z,77.75
2017-07-18T07:03:55.526Z,79.20
2017-07-18T07:04:55.570Z,79.39
2017-07-18T07:05:55.576Z,76.65
2017-07-18T07:06:55.571Z,78.57
2017-07-18T07:07:55.529Z,74.71
2017-07-18T07:08:55.551Z,75.65
2017-07-18T07:09:55.571Z,76.02
2017-07-18T07:10:55.587Z,74.94
2017-07-18T07:11:55.572Z,75.52
2017-07-18T07:12:55.573Z,76.18
2017-07-18T07:13:55.553Z,75.76
2017-07-18T07:14:55.701Z,76.31
2017-07-18T07:15:55.590Z,75.07
2017-07-18T07:16:55.570Z,75.84
2017-07-18T07:17:55.622Z,74.50
2017-07-18T07:18:55.653Z,74.24
2017-07-18T07:19:55.557Z,73.30
2017-07-18T07:20:55.623Z,73.85
2017-07-18T07:21:55.590Z,74.03
2017-07-18T07:22:55.618Z,73.93
2017-07-18T07:23:55.582Z,72.85
2017-07-18T07:24:55.605Z,73.45
2017-07-18T07:25:55.542Z,72.72
2017-07-18T07:26:55.596Z,74.60
2017-07-18T07:27:55.536Z,71.83
2017-07-18T07:28:55.569Z,71.15
2017-07-18T07:29:55.532Z,69.77
2017-07-18T07:30:55.591Z,70.66
2017-07-18T07:31:55.568Z,69.28
2017-07-18T07:32:55.586Z,70.84
2017-07-18T07:33:55.570Z,70.53
2017-07-18T07:34:55.521Z,70.74
2017-07-18T07:35:55.587Z,70.74
2017-07-18T07:36:55.598Z,72.98
2017-07-18T07:37:55.565Z,73.30
2017-07-18T07:38:55.613Z,70.56
2017-07-18T07:39:55.550Z,71.52
2017-07-18T07:40:55.597Z,69.41
2017-07-18T07:41:55.635Z,67.88
2017-07-18T07:42:55.542Z,68.27
2017-07-18T07:43:55.549Z,68.58
2017-07-18T07:44:55.573Z,68.89
2017-07-18T07:45:55.630Z,66.50
2017-07-18T07:46:55.611Z,65.78
2017-07-18T07:47:55.580Z,66.69
2017-07-18T07:48:55.603Z,70.24
2017-07-18T07:49:55.668Z,67.10
2017-07-18T07:50:55.654Z,65.70
2017-07-18T07:51:55.668Z,69.15
2017-07-18T07:52:55.667Z,64.02
2017-07-18T07:53:55.612Z,62.10
2017-07-18T07:54:55.669Z,61.56
2017-07-18T07:55:55.579Z,63.90
2017-07-18T07:56:55.620Z,62.18
2017-07-18T07:57:55.607Z,59.45
2017-07-18T07:58:55.585Z,60.27
2017-07-18T07:59:55.583Z,58.17
2017-07-18T08:00:55.682Z,59.12
2017-07-18T08:01:55.659Z,61.74
2017-07-18T08:02:55.610Z,58.94
2017-07-18T08:03:55.637Z,58.56
2017-07-18T08:04:55.616Z,60.86
2017-07-18T08:05:55.615Z,59.92
2017-07-18T08:06:55.655Z,58.68
2017-07-18T08:07:55.614Z,57.33
2017-07-18T08:08:55.651Z,60.68
2017-07-18T08:09:55.618Z,59.84
2017-07-18T08:10:55.592Z,58.46
2017-07-18T08:11:55.606Z,57.33
2017-07-18T08:12:55.685Z,58.33
2017-07-18T08:13:55.681Z,59.53
2017-07-18T08:14:55.685Z,58.48
2017-07-18T08:15:55.667Z,59.68
2017-07-18T08:16:55.647Z,58.07
2017-07-18T08:17:55.581Z,56.16
2017-07-18T08:18:55.604Z,57.89
2017-07-18T08:19:55.645Z,59.32
2017-07-18T08:20:55.648Z,56.82
2017-07-18T08:21:55.584Z,56.77
2017-07-18T08:22:55.583Z,57.21
2017-07-18T08:23:55.653Z,55.19
2017-07-18T08:24:55.631Z,57.13
2017-07-18T08:25:55.614Z,55.09
2017-07-18T08:26:55.692Z,56.59
2017-07-18T08:27:55.695Z,59.48
2017-07-18T08:28:55.663Z,54.94
2017-07-18T08:29:55.651Z,54.94
2017-07-18T08:30:55.636Z,54.78
2017-07-18T08:31:55.609Z,55.17
2017-07-18T08:32:55.606Z,55.98
2017-07-18T08:33:55.692Z,54.12
2017-07-18T08:34:55.663Z,52.57
2017-07-18T08:35:55.699Z,58.94
2017-07-18T08:36:55.625Z,57.48
2017-07-18T08:37:55.696Z,56.61
2017-07-18T08:38:55.626Z,57.43
2017-07-18T08:39:55.672Z,55.55
2017-07-18T08:40:55.938Z,55.17
2017-07-18T08:41:55.610Z,53.14
2017-07-18T08:42:55.631Z,52.96
2017-07-18T08:43:55.609Z,53.69
2017-07-18T08:44:55.608Z,55.14
2017-07-18T08:45:55.795Z,52.88
2017-07-18T08:46:55.607Z,53.11
2017-07-18T08:47:55.669Z,52.70
2017-07-18T08:48:55.643Z,52.57
2017-07-18T08:49:55.663Z,52.17
2017-07-18T08:50:55.697Z,55.78
2017-07-18T08:51:55.618Z,50.98
2017-07-18T08:52:55.706Z,54.20
2017-07-18T08:53:55.646Z,54.30
2017-07-18T08:54:55.661Z,50.58
2017-07-18T08:55:55.631Z,56.67
2017-07-18T08:56:55.651Z,54.37
2017-07-18T08:57:55.647Z,53.47
2017-07-18T08:58:55.650Z,53.06
2017-07-18T08:59:55.654Z,53.31
2017-07-18T09:00:55.621Z,52.35
2017-07-18T09:01:55.622Z,48.59
2017-07-18T09:02:55.703Z,48.74
2017-07-18T09:03:55.618Z,47.36
2017-07-18T09:04:55.603Z,50.75
2017-07-18T09:05:55.555Z,50.05
2017-07-18T09:06:55.516Z,50.60
2017-07-18T09:07:55.561Z,55.70
2017-07-18T09:08:55.506Z,48.16
2017-07-18T09:09:55.573Z,48.92
2017-07-18T09:10:55.567Z,49.72
2017-07-18T09:11:55.555Z,51.64
2017-07-18T09:12:55.560Z,49.64
2017-07-18T09:13:55.646Z,49.17
2017-07-18T09:14:55.624Z,51.59
2017-07-18T09:15:55.581Z,56.31
2017-07-18T09:16:55.599Z,50.58
2017-07-18T09:17:55.625Z,49.64
2017-07-18T09:18:55.651Z,56.85
2017-07-18T09:19:55.655Z,51.08
2017-07-18T09:20:55.631Z,53.69
2017-07-18T09:21:55.650Z,48.36
2017-07-18T09:22:55.626Z,50.58
2017-07-18T09:23:55.694Z,51.24
2017-07-18T09:24:55.693Z,48.01
2017-07-18T09:25:55.725Z,54.53
2017-07-18T09:26:55.658Z,47.38
2017-07-18T09:27:55.630Z,49.69
2017-07-18T09:28:55.705Z,54.20
2017-07-18T09:29:55.690Z,51.06
2017-07-18T09:30:55.662Z,48.99
2017-07-18T09:31:55.707Z,51.26
2017-07-18T09:32:55.633Z,48.84
2017-07-18T09:33:55.657Z,50.66
2017-07-18T09:34:55.726Z,45.52
2017-07-18T09:35:55.670Z,51.46
2017-07-18T09:36:55.664Z,44.20
2017-07-18T09:37:55.635Z,46.75
2017-07-18T09:38:55.671Z,51.49
2017-07-18T09:39:55.637Z,50.68
2017-07-18T09:40:55.699Z,51.97
2017-07-18T09:41:55.698Z,50.66
2017-07-18T09:42:55.675Z,48.26
2017-07-18T09:43:55.608Z,49.29
2017-07-18T09:44:55.666Z,50.98
2017-07-18T09:45:55.664Z,50.30
2017-07-18T09:46:55.658Z,50.60
2017-07-18T09:47:55.647Z,56.82
2017-07-18T09:48:55.616Z,48.19
2017-07-18T09:49:55.615Z,49.72
2017-07-18T09:50:55.651Z,46.35
2017-07-18T09:51:55.673Z,46.90
2017-07-18T09:52:55.643Z,47.58
2017-07-18T09:53:55.661Z,48.74
2017-07-18T09:54:55.667Z,44.72
2017-07-18T09:55:55.712Z,53.54
2017-07-18T09:56:55.646Z,47.45
2017-07-18T09:57:55.627Z,47.10
2017-07-18T09:58:55.616Z,46.50
2017-07-18T09:59:55.716Z,45.52
2017-07-18T10:00:55.625Z,46.75
2017-07-18T10:01:55.648Z,47.71
2017-07-18T10:02:55.648Z,45.15
2017-07-18T10:03:55.737Z,45.35
2017-07-18T10:04:55.693Z,48.11
2017-07-18T10:05:55.709Z,49.19
2017-07-18T10:06:55.685Z,44.75
2017-07-18T10:07:55.748Z,45.62
2017-07-18T10:08:55.682Z,46.78
2017-07-18T10:09:55.730Z,45.50
2017-07-18T10:10:55.688Z,48.19
2017-07-18T10:11:55.684Z,42.83
2017-07-18T10:12:55.743Z,45.90
2017-07-18T10:13:55.751Z,43.52
2017-07-18T10:14:55.722Z,46.23
2017-07-18T10:15:55.742Z,43.72
2017-07-18T10:16:55.748Z,49.06
2017-07-18T10:17:55.728Z,41.03
2017-07-18T10:18:55.748Z,43.57
2017-07-18T10:19:55.726Z,42.35
2017-07-18T10:20:55.721Z,43.08
2017-07-18T10:21:55.696Z,44.75
2017-07-18T10:22:55.729Z,42.92
2017-07-18T10:23:55.662Z,43.77
2017-07-18T10:24:55.655Z,46.40
2017-07-18T10:25:55.687Z,45.35
2017-07-18T10:26:55.663Z,45.32
2017-07-18T10:27:55.712Z,44.52
2017-07-18T10:28:55.730Z,48.69
2017-07-18T10:29:55.690Z,45.52
2017-07-18T10:30:55.724Z,43.33
2017-07-18T10:31:55.722Z,44.87
2017-07-18T10:32:55.725Z,55.19
2017-07-18T10:33:55.662Z,44.27
2017-07-18T10:34:55.666Z,49.19
2017-07-18T10:35:55.679Z,44.60
2017-07-18T10:36:55.668Z,48.46
2017-07-18T10:37:55.659Z,41.93
2017-07-18T10:38:55.727Z,45.48
2017-07-18T10:39:55.732Z,43.10
2017-07-18T10:40:55.672Z,43.30
2017-07-18T10:41:55.695Z,43.80
2017-07-18T10:42:55.700Z,47.73
2017-07-18T10:43:55.733Z,47.98
2017-07-18T10:44:55.729Z,40.83
2017-07-18T10:45:55.736Z,45.68
2017-07-18T10:46:55.732Z,46.60
2017-07-18T10:47:55.732Z,42.15
2017-07-18T10:48:55.751Z,44.87
2017-07-18T10:49:55.687Z,43.75
2017-07-18T10:50:55.741Z,46.85
2017-07-18T10:51:55.744Z,42.30
2017-07-18T10:52:55.686Z,41.73
2017-07-18T10:53:55.688Z,46.23
2017-07-18T10:54:55.755Z,42.70
2017-07-18T10:55:55.686Z,43.65
2017-07-18T10:56:55.772Z,41.63
2017-07-18T10:57:55.720Z,42.55
2017-07-18T10:58:55.747Z,44.17
2017-07-18T10:59:55.690Z,45.77
2017-07-18T11:00:55.754Z,44.57
2017-07-18T11:01:55.780Z,43.80
2017-07-18T11:02:55.750Z,44.75
2017-07-18T11:03:55.712Z,46.81
2017-07-18T11:04:55.741Z,44.72
2017-07-18T11:05:55.747Z,45.02
2017-07-18T11:06:55.690Z,45.73
2017-07-18T11:07:55.695Z,48.28
2017-07-18T11:08:55.717Z,43.60
2017-07-18T11:09:55.779Z,42.58
2017-07-18T11:10:55.692Z,41.93
2017-07-18T11:11:55.719Z,43.80
2017-07-18T11:12:55.697Z,46.35
2017-07-18T11:13:55.729Z,47.36
2017-07-18T11:14:55.680Z,40.24
2017-07-18T11:15:55.682Z,41.61
2017-07-18T11:16:55.711Z,43.52
2017-07-18T11:17:55.711Z,44.85
2017-07-18T11:18:55.695Z,44.52
2017-07-18T11:19:55.750Z,45.90
2017-07-18T11:20:55.691Z,48.69
2017-07-18T11:21:55.751Z,46.30
2017-07-18T11:22:55.716Z,40.34
2017-07-18T11:23:55.756Z,44.39
2017-07-18T11:24:55.693Z,39.64
2017-07-18T11:25:55.697Z,42.23
2017-07-18T11:26:55.762Z,42.15
2017-07-18T11:27:55.697Z,43.08
2017-07-18T11:28:55.763Z,45.65
2017-07-18T11:29:55.726Z,46.20
2017-07-18T11:30:55.707Z,46.60
2017-07-18T11:31:55.667Z,44.20
2017-07-18T11:32:55.724Z,46.00
2017-07-18T11:33:55.699Z,41.75
2017-07-18T11:34:55.723Z,39.94
2017-07-18T11:35:55.766Z,39.27
2017-07-18T11:36:55.723Z,40.68
2017-07-18T11:37:55.704Z,44.57
2017-07-18T11:38:55.714Z,41.73
2017-07-18T11:39:55.779Z,42.20
2017-07-18T11:40:55.685Z,46.07
2017-07-18T11:41:55.717Z,43.63
2017-07-18T11:42:55.688Z,42.30
2017-07-18T11:43:55.687Z,44.35
2017-07-18T11:44:55.784Z,40.31
2017-07-18T11:45:55.765Z,40.43
2017-07-18T11:46:55.708Z,42.10
2017-07-18T11:47:55.771Z,42.00
2017-07-18T11:48:55.775Z,44.30
2017-07-18T11:49:55.714Z,41.28
2017-07-18T11:50:55.770Z,44.70
2017-07-18T11:51:55.749Z,48.21
2017-07-18T11:52:55.808Z,47.58
2017-07-18T11:53:55.796Z,45.70
2017-07-18T11:54:55.744Z,40.24
2017-07-18T11:55:55.784Z,40.96
2017-07-18T11:56:55.789Z,44.30
2017-07-18T11:57:55.785Z,43.45
2017-07-18T11:58:55.782Z,39.34
2017-07-18T11:59:55.808Z,39.32
2017-07-18T12:00:55.783Z,42.65
2017-07-18T12:01:55.722Z,44.37
2017-07-18T12:02:55.750Z,41.75
2017-07-18T12:03:55.748Z,44.97
2017-07-18T12:04:55.757Z,43.45
2017-07-18T12:05:55.787Z,42.45
2017-07-18T12:06:55.724Z,43.45
2017-07-18T12:07:55.727Z,43.57
2017-07-18T12:08:55.728Z,42.65
2017-07-18T12:09:55.762Z,44.85
2017-07-18T12:10:55.755Z,49.24
2017-07-18T12:11:55.822Z,45.98
2017-07-18T12:12:55.842Z,43.80
2017-07-18T12:13:55.779Z,41.61
2017-07-18T12:14:55.786Z,47.63
2017-07-18T12:15:55.789Z,43.08
2017-07-18T12:16:55.788Z,39.94
2017-07-18T12:17:55.754Z,43.60
2017-07-18T12:18:55.750Z,39.76
2017-07-18T12:19:55.751Z,45.00
2017-07-18T12:20:55.789Z,39.42
2017-07-18T12:21:55.730Z,38.50
2017-07-18T12:22:55.816Z,44.64
2017-07-18T12:23:55.793Z,48.16
2017-07-18T12:24:55.788Z,39.12
2017-07-18T12:25:55.743Z,38.99
2017-07-18T12:26:55.787Z,41.88
2017-07-18T12:27:55.821Z,42.12
2017-07-18T12:28:55.799Z,39.10
2017-07-18T12:29:55.744Z,41.48
2017-07-18T12:30:55.768Z,41.33
2017-07-18T12:31:55.770Z,38.70
2017-07-18T12:32:55.768Z,39.34
2017-07-18T12:33:55.833Z,41.03
2017-07-18T12:34:55.756Z,39.02
2017-07-18T12:35:55.760Z,39.69
2017-07-18T12:36:55.757Z,41.80
2017-07-18T12:37:55.748Z,40.11
2017-07-18T12:38:55.807Z,41.38
2017-07-18T12:39:55.708Z,44.45
2017-07-18T12:40:55.742Z,40.61
2017-07-18T12:41:55.806Z,40.11
2017-07-18T12:42:55.738Z,42.97
2017-07-18T12:43:55.855Z,41.43
2017-07-18T12:44:55.814Z,41.88
2017-07-18T12:45:55.777Z,44.55
2017-07-18T12:46:55.818Z,41.15
2017-07-18T12:47:55.846Z,38.68
2017-07-18T12:48:55.810Z,39.42
2017-07-18T12:49:55.835Z,39.89
2017-07-18T12:50:55.780Z,36.70
2017-07-18T12:51:55.749Z,37.53
2017-07-18T12:52:55.808Z,46.27